Time;durP1;ratioP1;P1;durP2;ratioP2;P2;SDS_P1;SDS_P2;PMS_P1;PMS_P2;Temp;Humidity;BMP_temperature;BMP_pressure;BME280_temperature;BME280_humidity;BME280_pressure;Samples;Min_cycle;Max_cycle;Signal;HPM_P1;HPM_P2
2021/07/30 00:01:01;;;;;;;3.13;2.10;;;20.10;72.20;;;;;;5007645;28;20044;-86
2021/07/30 00:03:27;;;;;;;3.30;2.08;;;20.10;72.40;;;;;;5006402;28;20681;-87
2021/07/30 00:05:53;;;;;;;2.95;2.35;;;20.00;72.50;;;;;;5005725;28;20030;-86
2021/07/30 00:08:19;;;;;;;5.53;2.55;;;20.00;73.00;;;;;;5005909;28;20475;-85
2021/07/30 00:10:46;;;;;;;3.70;1.80;;;20.00;73.60;;;;;;5006344;28;20065;-88
2021/07/30 00:13:12;;;;;;;3.13;2.30;;;19.90;74.00;;;;;;5008516;28;20060;-86
2021/07/30 00:15:37;;;;;;;4.88;2.50;;;19.90;74.40;;;;;;5006074;28;20033;-87
2021/07/30 00:18:04;;;;;;;2.58;2.08;;;19.90;74.90;;;;;;5006542;28;20038;-87
2021/07/30 00:20:30;;;;;;;3.95;1.90;;;19.90;75.30;;;;;;5007088;28;20021;-87
2021/07/30 00:22:56;;;;;;;4.57;2.05;;;19.80;75.60;;;;;;5005905;28;20022;-86
2021/07/30 00:25:21;;;;;;;3.50;2.25;;;19.60;75.80;;;;;;5007553;28;20044;-88
2021/07/30 00:27:47;;;;;;;3.63;2.20;;;19.70;76.00;;;;;;5006933;28;20030;-86
2021/07/30 00:30:13;;;;;;;6.57;2.42;;;19.80;75.80;;;;;;5006202;28;20334;-88
2021/07/30 00:32:39;;;;;;;3.28;2.35;;;19.80;75.50;;;;;;5006207;28;20054;-86
2021/07/30 00:35:05;;;;;;;2.53;1.70;;;19.90;74.50;;;;;;5005455;28;20570;-86
2021/07/30 00:37:32;;;;;;;3.67;2.63;;;20.10;73.70;;;;;;5005617;28;20053;-87
2021/07/30 00:39:58;;;;;;;3.33;2.15;;;20.20;73.00;;;;;;5005947;28;20061;-87
2021/07/30 00:42:23;;;;;;;4.30;2.05;;;20.20;72.60;;;;;;5010333;28;20033;-86
2021/07/30 00:44:49;;;;;;;7.75;2.47;;;20.30;72.30;;;;;;5010609;28;20042;-86
2021/07/30 00:47:15;;;;;;;3.63;2.00;;;20.30;72.30;;;;;;5010154;28;20029;-85
2021/07/30 00:49:40;;;;;;;2.92;1.98;;;20.30;72.40;;;;;;5011308;28;20037;-88
2021/07/30 00:52:06;;;;;;;8.10;2.42;;;20.30;72.50;;;;;;5010270;28;20272;-86
2021/07/30 00:54:33;;;;;;;2.75;2.08;;;20.30;72.40;;;;;;5010733;28;20029;-88
2021/07/30 00:57:00;;;;;;;6.22;1.83;;;20.30;72.30;;;;;;5011007;28;20036;-85
2021/07/30 00:59:28;;;;;;;2.90;1.65;;;20.30;72.00;;;;;;5009646;28;20026;-86
2021/07/30 01:01:53;;;;;;;2.53;1.90;;;20.30;71.90;;;;;;5010180;28;20109;-86
2021/07/30 01:04:19;;;;;;;3.08;2.28;;;20.30;71.70;;;;;;5009331;28;20166;-87
2021/07/30 01:06:45;;;;;;;5.43;1.70;;;20.30;71.60;;;;;;5009549;28;20379;-84
2021/07/30 01:09:11;;;;;;;4.53;2.50;;;20.40;71.30;;;;;;5009536;28;20084;-85
2021/07/30 01:11:37;;;;;;;5.22;2.03;;;20.40;71.40;;;;;;5009785;28;20033;-87
2021/07/30 01:14:03;;;;;;;3.70;1.98;;;20.30;71.10;;;;;;5011186;28;20034;-84
2021/07/30 01:16:29;;;;;;;3.58;2.40;;;20.30;71.10;;;;;;5010723;28;20502;-87
2021/07/30 01:18:54;;;;;;;4.30;2.15;;;20.40;71.10;;;;;;5009028;28;20091;-86
2021/07/30 01:21:24;;;;;;;3.38;2.10;;;20.40;71.90;;;;;;5010070;28;20030;-88
2021/07/30 01:23:51;;;;;;;2.92;1.98;;;20.40;71.00;;;;;;5010129;28;20489;-87
2021/07/30 01:26:17;;;;;;;3.10;1.88;;;20.40;71.00;;;;;;5009824;28;20084;-82
2021/07/30 01:28:43;;;;;;;5.60;2.13;;;20.40;71.10;;;;;;5009541;28;20061;-85
2021/07/30 01:31:09;;;;;;;2.28;1.60;;;20.30;71.30;;;;;;5008960;28;20069;-84
2021/07/30 01:33:36;;;;;;;3.45;1.75;;;20.30;71.40;;;;;;5009233;28;20049;-86
2021/07/30 01:36:02;;;;;;;3.42;1.73;;;20.30;71.40;;;;;;5010337;28;20072;-88
2021/07/30 01:38:28;;;;;;;7.47;2.28;;;20.40;71.30;;;;;;5030639;28;20037;-87
2021/07/30 01:40:53;;;;;;;5.07;2.05;;;20.40;71.30;;;;;;5012917;28;20029;-87
2021/07/30 01:43:19;;;;;;;7.18;1.90;;;20.40;71.10;;;;;;5013072;28;20033;-85
2021/07/30 01:45:46;;;;;;;7.32;2.05;;;20.40;71.00;;;;;;5012278;28;20050;-87
2021/07/30 01:48:11;;;;;;;3.30;2.00;;;20.40;71.10;;;;;;5011400;28;20406;-88
2021/07/30 01:50:37;;;;;;;2.42;1.70;;;20.40;71.40;;;;;;5010767;28;20041;-89
2021/07/30 01:53:02;;;;;;;3.88;1.80;;;20.30;71.70;;;;;;5010406;28;20035;-87
2021/07/30 01:55:28;;;;;;;3.78;2.10;;;20.30;71.90;;;;;;5012038;28;20390;-87
2021/07/30 01:57:54;;;;;;;3.08;1.77;;;20.20;71.80;;;;;;5011939;28;20636;-87
2021/07/30 02:00:19;;;;;;;3.20;1.90;;;20.20;72.10;;;;;;5030030;28;20465;-87
2021/07/30 02:02:45;;;;;;;3.47;2.08;;;20.20;72.10;;;;;;5011758;28;20059;-87
2021/07/30 02:05:11;;;;;;;3.28;1.92;;;20.10;72.00;;;;;;5011779;28;20528;-86
2021/07/30 02:07:40;;;;;;;3.42;2.20;;;20.10;71.90;;;;;;5011778;28;20033;-87
2021/07/30 02:10:07;;;;;;;2.58;1.77;;;20.10;71.90;;;;;;5011628;28;20073;-89
2021/07/30 02:15:18;;;;;;;4.03;2.00;;;20.20;71.30;;;;;;5029725;28;20124;-88
2021/07/30 02:17:44;;;;;;;2.83;2.03;;;20.20;71.20;;;;;;5010826;28;20029;-87
2021/07/30 02:20:10;;;;;;;2.63;1.67;;;20.20;71.00;;;;;;5011485;28;20030;-88
2021/07/30 02:22:35;;;;;;;5.32;1.80;;;20.30;71.00;;;;;;5011462;28;20765;-87
2021/07/30 02:25:01;;;;;;;2.95;2.10;;;20.30;71.20;;;;;;5011192;28;20128;-86
2021/07/30 02:27:26;;;;;;;4.22;2.17;;;20.30;71.40;;;;;;5011596;28;20374;-86
2021/07/30 02:29:52;;;;;;;5.57;3.10;;;20.30;71.50;;;;;;5011321;28;20029;-86
2021/07/30 02:32:18;;;;;;;4.45;2.50;;;20.20;71.70;;;;;;5011272;28;20111;-87
2021/07/30 02:34:43;;;;;;;4.10;2.15;;;20.20;72.10;;;;;;5028893;28;20093;-87
2021/07/30 02:37:09;;;;;;;9.40;2.72;;;20.10;72.40;;;;;;5028338;28;20525;-87
2021/07/30 02:39:35;;;;;;;2.50;1.80;;;20.10;72.70;;;;;;5028558;28;20036;-88
2021/07/30 02:42:00;;;;;;;4.28;2.20;;;20.00;73.10;;;;;;5028818;28;20036;-85
2021/07/30 02:44:26;;;;;;;4.13;2.90;;;20.00;73.20;;;;;;5011290;28;20538;-89
2021/07/30 02:46:52;;;;;;;4.40;2.10;;;19.90;73.00;;;;;;5028237;28;20095;-88
2021/07/30 02:49:17;;;;;;;4.50;2.20;;;20.00;73.20;;;;;;5010922;28;20061;-88
2021/07/30 02:51:43;;;;;;;5.00;2.28;;;20.00;73.30;;;;;;5010514;28;20144;-85
2021/07/30 02:54:08;;;;;;;6.30;2.75;;;20.00;73.40;;;;;;5010959;28;20486;-86
2021/07/30 02:56:34;;;;;;;4.80;2.38;;;19.90;74.00;;;;;;5011057;28;20037;-87
2021/07/30 02:59:00;;;;;;;3.15;1.92;;;19.90;74.10;;;;;;5010419;28;20056;-87
2021/07/30 03:01:26;;;;;;;3.65;1.90;;;19.80;74.10;;;;;;5010951;28;20029;-87
2021/07/30 03:03:51;;;;;;;4.55;1.90;;;19.70;74.10;;;;;;5010041;28;20410;-88
2021/07/30 03:06:17;;;;;;;4.25;2.38;;;19.70;74.20;;;;;;5010782;28;20466;-85
2021/07/30 03:08:43;;;;;;;4.80;2.38;;;19.60;74.70;;;;;;5011653;28;20037;-85
2021/07/30 03:11:08;;;;;;;6.78;2.55;;;19.70;75.20;;;;;;5030259;28;20091;-87
2021/07/30 03:13:34;;;;;;;5.05;2.83;;;19.60;75.20;;;;;;5010821;28;20037;-86
2021/07/30 03:15:59;;;;;;;3.47;2.22;;;19.60;75.60;;;;;;5010446;28;20040;-85
2021/07/30 03:18:28;;;;;;;4.85;1.90;;;19.60;75.40;;;;;;5009895;28;20095;-87
2021/07/30 03:20:54;;;;;;;5.50;2.78;;;19.60;75.50;;;;;;5010337;28;20087;-85
2021/07/30 03:23:20;;;;;;;3.15;2.28;;;19.60;75.50;;;;;;5010673;28;20036;-87
2021/07/30 03:25:45;;;;;;;4.20;2.55;;;19.60;75.20;;;;;;5010189;28;20037;-87
2021/07/30 03:28:11;;;;;;;3.90;2.08;;;19.60;75.50;;;;;;5010508;28;20470;-86
2021/07/30 03:30:37;;;;;;;3.10;2.45;;;19.70;75.50;;;;;;5010201;28;20029;-88
2021/07/30 03:33:03;;;;;;;6.57;2.20;;;19.70;75.00;;;;;;5009582;28;20056;-85
2021/07/30 03:35:29;;;;;;;3.38;2.58;;;19.70;75.10;;;;;;5027819;28;20068;-86
2021/07/30 03:37:55;;;;;;;3.22;2.30;;;19.80;74.80;;;;;;5009800;28;20084;-87
2021/07/30 03:40:20;;;;;;;3.47;2.20;;;19.80;75.10;;;;;;5010018;28;20127;-84
2021/07/30 03:42:46;;;;;;;5.18;2.53;;;19.80;75.10;;;;;;5010080;28;20057;-86
2021/07/30 03:45:12;;;;;;;5.60;2.55;;;19.80;75.00;;;;;;5009747;28;20051;-84
2021/07/30 03:47:37;;;;;;;5.72;2.25;;;19.80;74.60;;;;;;5009580;28;20829;-87
2021/07/30 03:50:03;;;;;;;4.07;2.47;;;19.90;74.20;;;;;;5009741;28;20471;-86
2021/07/30 03:52:29;;;;;;;3.60;2.30;;;20.00;74.20;;;;;;5010320;28;20025;-84
2021/07/30 03:54:55;;;;;;;3.70;1.92;;;20.10;74.00;;;;;;5027551;28;20040;-86
2021/07/30 03:57:20;;;;;;;3.55;2.05;;;20.20;73.80;;;;;;5009482;28;20037;-83
2021/07/30 03:59:46;;;;;;;4.95;2.20;;;20.30;74.10;;;;;;5027331;28;20553;-85
2021/07/30 04:02:16;;;;;;;7.47;2.40;;;20.40;74.20;;;;;;5027194;28;20044;-83
2021/07/30 04:04:41;;;;;;;7.65;3.10;;;20.50;74.50;;;;;;5026949;28;20036;-86
2021/07/30 04:07:07;;;;;;;9.25;2.67;;;20.50;74.20;;;;;;5026981;28;20033;-83
2021/07/30 04:09:32;;;;;;;5.68;2.42;;;20.60;74.00;;;;;;5009584;28;20103;-86
2021/07/30 04:11:58;;;;;;;6.10;2.60;;;20.70;73.70;;;;;;5009538;28;20176;-87
2021/07/30 04:14:24;;;;;;;3.10;2.22;;;20.80;74.00;;;;;;5009215;28;20402;-87
2021/07/30 04:16:49;;;;;;;8.32;2.08;;;20.90;74.00;;;;;;5026083;28;20038;-86
2021/07/30 04:19:15;;;;;;;7.32;3.03;;;21.10;74.00;;;;;;5008717;28;20025;-87
2021/07/30 04:21:40;;;;;;;4.28;2.38;;;21.20;74.40;;;;;;5009299;28;20549;-86
2021/07/30 04:24:06;;;;;;;8.70;3.28;;;21.30;74.70;;;;;;5026919;28;20053;-85
2021/07/30 04:26:32;;;;;;;16.30;3.05;;;21.40;74.80;;;;;;5009343;28;20781;-85
2021/07/30 04:28:57;;;;;;;5.55;2.92;;;21.40;75.50;;;;;;5008872;28;20120;-87
2021/07/30 04:31:23;;;;;;;6.47;3.35;;;21.30;75.90;;;;;;5008791;28;20172;-84
2021/07/30 04:33:49;;;;;;;4.28;2.83;;;21.30;76.20;;;;;;5027191;28;20075;-84
2021/07/30 04:36:15;;;;;;;5.88;3.10;;;21.30;76.70;;;;;;5008824;28;20119;-86
2021/07/30 04:38:42;;;;;;;4.70;3.05;;;21.30;76.80;;;;;;5009101;28;20033;-87
2021/07/30 04:41:08;;;;;;;4.50;2.45;;;21.30;77.50;;;;;;5026875;28;20060;-86
2021/07/30 04:43:33;;;;;;;10.70;3.42;;;21.40;77.60;;;;;;5008778;28;20064;-87
2021/07/30 04:45:59;;;;;;;5.32;3.15;;;21.40;77.70;;;;;;5008988;28;20018;-86
2021/07/30 04:48:25;;;;;;;8.07;3.92;;;21.50;78.20;;;;;;5008848;28;20547;-86
2021/07/30 04:50:51;;;;;;;7.82;4.00;;;21.50;78.20;;;;;;5008626;28;20041;-85
2021/07/30 04:53:16;;;;;;;5.50;3.67;;;21.60;78.80;;;;;;5026870;28;20504;-86
2021/07/30 04:55:42;;;;;;;4.28;3.53;;;21.60;78.60;;;;;;5009301;28;20340;-88
2021/07/30 04:58:07;;;;;;;4.95;3.30;;;21.70;79.40;;;;;;5026428;28;20033;-85
2021/07/30 05:00:33;;;;;;;6.13;4.00;;;21.70;79.20;;;;;;5009044;28;20406;-86
2021/07/30 05:02:59;;;;;;;8.00;3.28;;;21.80;79.60;;;;;;5008863;28;20022;-84
2021/07/30 05:05:24;;;;;;;9.02;3.85;;;21.90;79.00;;;;;;5008273;28;20037;-85
2021/07/30 05:07:50;;;;;;;5.28;3.40;;;21.90;79.30;;;;;;5026341;28;20029;-86
2021/07/30 05:10:16;;;;;;;6.82;3.88;;;22.00;79.00;;;;;;5008939;28;20052;-85
2021/07/30 05:12:42;;;;;;;10.70;3.50;;;22.20;78.40;;;;;;5008839;28;20685;-87
2021/07/30 05:15:08;;;;;;;6.43;3.40;;;22.40;79.00;;;;;;5008747;28;20030;-85
2021/07/30 05:17:34;;;;;;;5.57;2.92;;;22.60;78.70;;;;;;5008544;28;20037;-86
2021/07/30 05:20:00;;;;;;;7.50;3.13;;;22.80;77.90;;;;;;5008522;28;20033;-85
2021/07/30 05:22:25;;;;;;;8.45;3.28;;;23.00;76.90;;;;;;5026346;28;20033;-84
2021/07/30 05:24:51;;;;;;;6.80;3.05;;;23.30;76.30;;;;;;5008314;28;20041;-84
2021/07/30 05:27:18;;;;;;;9.52;3.72;;;23.60;75.00;;;;;;5008950;28;20029;-85
2021/07/30 05:29:45;;;;;;;4.93;3.08;;;23.90;74.70;;;;;;5029854;28;20044;-83
2021/07/30 05:32:10;;;;;;;5.72;2.60;;;24.30;74.20;;;;;;5011598;28;20076;-85
2021/07/30 05:34:36;;;;;;;8.38;3.17;;;24.50;68.10;;;;;;5011726;28;20026;-83
2021/07/30 05:37:02;;;;;;;4.68;2.63;;;24.70;66.50;;;;;;5029430;28;20406;-83
2021/07/30 05:39:30;;;;;;;3.67;2.20;;;25.00;64.20;;;;;;5029765;28;20124;-81
2021/07/30 05:41:56;;;;;;;6.45;2.28;;;25.20;62.60;;;;;;5012272;28;20531;-82
2021/07/30 05:44:21;;;;;;;3.22;2.58;;;25.40;61.40;;;;;;5011892;28;20025;-82
2021/07/30 05:46:47;;;;;;;3.90;2.60;;;25.60;60.20;;;;;;5012016;28;20039;-82
2021/07/30 05:49:13;;;;;;;4.10;2.78;;;25.70;60.00;;;;;;5011549;28;20072;-81
2021/07/30 05:51:38;;;;;;;4.32;2.90;;;26.00;59.10;;;;;;5011428;28;20494;-80
2021/07/30 05:54:04;;;;;;;3.78;2.90;;;26.30;58.10;;;;;;5011974;28;20030;-80
2021/07/30 05:56:30;;;;;;;4.85;3.28;;;26.50;57.80;;;;;;5011474;28;20678;-82
2021/07/30 05:58:57;;;;;;;7.65;3.10;;;26.70;57.30;;;;;;5011342;28;20053;-83
2021/07/30 06:01:24;;;;;;;5.30;2.80;;;27.20;57.40;;;;;;5010738;28;20040;-81
2021/07/30 06:03:50;;;;;;;3.45;2.50;;;27.80;55.10;;;;;;5028500;28;20706;-82
2021/07/30 06:06:16;;;;;;;5.38;3.03;;;28.60;52.50;;;;;;5028840;28;20022;-82
2021/07/30 06:08:42;;;;;;;3.30;2.90;;;29.30;50.20;;;;;;5010796;28;20037;-81
2021/07/30 06:11:07;;;;;;;4.72;2.85;;;30.00;48.30;;;;;;5028532;28;20562;-81
2021/07/30 06:13:33;;;;;;;5.43;2.80;;;30.50;47.00;;;;;;5028296;28;20104;-82
2021/07/30 06:15:59;;;;;;;3.88;2.60;;;30.80;46.80;;;;;;5010972;28;20037;-81
2021/07/30 06:18:24;;;;;;;5.13;3.20;;;31.40;45.80;;;;;;5010296;28;20544;-83
2021/07/30 06:20:51;;;;;;;8.23;2.78;;;31.80;45.10;;;;;;5011039;28;20128;-82
2021/07/30 06:23:17;;;;;;;7.43;2.83;;;32.60;44.10;;;;;;5010852;28;20025;-83
2021/07/30 06:25:42;;;;;;;6.03;3.30;;;33.50;42.80;;;;;;5010619;28;20033;-83
2021/07/30 06:28:08;;;;;;;6.72;2.83;;;34.50;40.90;;;;;;5010562;28;20386;-83
2021/07/30 06:30:34;;;;;;;6.85;3.47;;;35.40;38.80;;;;;;5010457;28;20068;-83
2021/07/30 06:32:59;;;;;;;4.80;2.80;;;36.20;37.40;;;;;;5027892;28;20071;-83
2021/07/30 06:35:26;;;;;;;7.22;2.88;;;36.80;36.10;;;;;;5010737;28;20033;-83
2021/07/30 06:37:52;;;;;;;16.48;3.67;;;37.20;35.70;;;;;;5010233;28;20053;-83
2021/07/30 06:40:18;;;;;;;7.07;3.53;;;37.60;35.60;;;;;;5009506;28;20044;-83
2021/07/30 06:42:43;;;;;;;6.75;3.10;;;37.80;35.30;;;;;;5010512;28;20132;-81
2021/07/30 06:45:09;;;;;;;8.50;3.88;;;37.90;34.80;;;;;;5010111;28;20148;-83
2021/07/30 06:47:36;;;;;;;5.07;3.80;;;38.30;34.70;;;;;;5010143;28;20429;-82
2021/07/30 06:50:03;;;;;;;5.90;3.67;;;38.70;34.40;;;;;;5010163;28;20033;-83
2021/07/30 06:52:31;;;;;;;6.75;3.92;;;38.60;34.40;;;;;;5028120;28;20026;-82
2021/07/30 06:54:56;;;;;;;6.60;4.32;;;38.90;34.50;;;;;;5010135;28;20080;-82
2021/07/30 06:57:22;;;;;;;5.22;3.78;;;39.20;34.90;;;;;;5027978;28;20033;-83
2021/07/30 06:59:48;;;;;;;4.75;3.20;;;39.20;34.70;;;;;;5009953;28;20083;-83
2021/07/30 07:02:15;;;;;;;15.88;4.18;;;39.40;34.90;;;;;;5027350;28;20055;-82
2021/07/30 07:04:40;;;;;;;4.45;3.53;;;39.40;34.70;;;;;;5027726;28;20025;-82
2021/07/30 07:07:06;;;;;;;6.65;3.80;;;39.60;34.70;;;;;;5027165;28;20038;-83
2021/07/30 07:09:32;;;;;;;10.45;3.38;;;39.60;34.50;;;;;;5027339;28;20088;-83
2021/07/30 07:11:58;;;;;;;6.78;3.60;;;39.70;34.30;;;;;;5009842;28;20398;-82
2021/07/30 07:14:23;;;;;;;6.97;3.60;;;39.90;34.00;;;;;;5027209;28;20128;-82
2021/07/30 07:16:49;;;;;;;4.20;3.55;;;39.60;34.00;;;;;;5009248;28;20060;-82
2021/07/30 07:19:15;;;;;;;12.93;4.22;;;39.30;34.10;;;;;;5009068;28;20541;-83
2021/07/30 07:21:40;;;;;;;7.25;3.72;;;39.20;34.00;;;;;;5009758;28;20022;-83
2021/07/30 07:24:07;;;;;;;4.72;3.22;;;38.80;34.60;;;;;;5009732;28;20108;-84
2021/07/30 07:26:36;;;;;;;6.32;3.50;;;38.40;35.30;;;;;;5009116;28;20032;-82
2021/07/30 07:29:02;;;;;;;9.45;4.20;;;38.70;35.50;;;;;;5026835;28;20034;-83
2021/07/30 07:31:28;;;;;;;7.22;3.72;;;38.80;35.30;;;;;;5027159;28;20037;-82
2021/07/30 07:33:53;;;;;;;6.25;3.88;;;38.90;35.20;;;;;;5026874;28;20033;-83
2021/07/30 07:36:19;;;;;;;6.93;3.70;;;39.10;35.00;;;;;;5009498;28;20037;-82
2021/07/30 07:38:44;;;;;;;6.15;3.80;;;39.50;34.20;;;;;;5009760;28;20037;-82
2021/07/30 07:41:11;;;;;;;12.93;3.47;;;38.90;34.80;;;;;;5009524;28;20038;-83
2021/07/30 07:43:37;;;;;;;6.38;3.67;;;39.10;34.50;;;;;;5008961;28;20136;-80
2021/07/30 07:46:02;;;;;;;16.23;4.30;;;39.30;34.20;;;;;;5009063;28;20127;-83
2021/07/30 07:48:28;;;;;;;9.07;4.28;;;39.20;34.70;;;;;;5009052;28;20029;-83
2021/07/30 07:50:54;;;;;;;10.98;3.38;;;39.30;35.10;;;;;;5026002;28;20120;-83
2021/07/30 07:53:20;;;;;;;7.03;3.58;;;39.10;34.10;;;;;;5027033;28;20508;-83
2021/07/30 07:55:48;;;;;;;7.25;3.72;;;39.30;34.40;;;;;;5026873;28;20059;-82
2021/07/30 07:58:14;;;;;;;8.43;3.97;;;39.40;34.10;;;;;;5009027;28;20402;-82
2021/07/30 08:00:41;;;;;;;14.25;3.22;;;39.40;34.00;;;;;;5026236;28;20563;-83
2021/07/30 08:03:07;;;;;;;5.25;3.30;;;39.40;34.00;;;;;;5008752;28;20032;-82
2021/07/30 08:05:32;;;;;;;6.72;3.63;;;39.70;33.20;;;;;;5008880;28;20033;-82
2021/07/30 08:07:59;;;;;;;6.90;3.63;;;40.00;33.00;;;;;;5008969;28;20025;-83
2021/07/30 08:10:24;;;;;;;5.80;3.60;;;39.90;32.10;;;;;;5026380;28;20076;-83
2021/07/30 08:12:50;;;;;;;11.27;4.15;;;40.20;32.50;;;;;;5008508;28;20561;-83
2021/07/30 08:15:16;;;;;;;16.20;4.03;;;40.60;32.50;;;;;;5008624;28;20068;-83
2021/07/30 08:17:42;;;;;;;6.80;2.90;;;40.60;31.10;;;;;;5008431;28;20029;-83
2021/07/30 08:20:09;;;;;;;5.63;3.05;;;40.60;31.10;;;;;;5026377;28;20383;-83
2021/07/30 08:22:35;;;;;;;3.33;3.03;;;40.80;30.90;;;;;;5008177;28;20352;-81
2021/07/30 08:25:01;;;;;;;11.10;2.97;;;40.40;30.00;;;;;;5008396;28;20029;-83
2021/07/30 08:27:27;;;;;;;6.45;3.13;;;40.20;30.00;;;;;;5008710;28;20026;-83
2021/07/30 08:29:53;;;;;;;6.47;3.15;;;40.20;31.10;;;;;;5007968;28;20056;-83
2021/07/30 08:32:18;;;;;;;8.18;3.88;;;40.50;30.60;;;;;;5008361;28;20112;-82
2021/07/30 08:34:44;;;;;;;7.97;3.38;;;40.70;29.90;;;;;;5008435;28;20040;-80
2021/07/30 08:37:10;;;;;;;9.98;3.25;;;40.00;30.30;;;;;;5007841;28;20080;-83
2021/07/30 08:39:37;;;;;;;5.30;3.10;;;40.20;30.40;;;;;;5026053;28;20113;-81
2021/07/30 08:42:04;;;;;;;8.25;2.38;;;40.50;30.00;;;;;;5026227;28;20030;-82
2021/07/30 08:44:31;;;;;;;6.18;2.80;;;40.50;29.10;;;;;;5008007;28;20071;-82
2021/07/30 08:46:58;;;;;;;2.28;2.08;;;40.60;28.70;;;;;;5025874;28;20029;-83
2021/07/30 08:49:24;;;;;;;9.82;2.20;;;40.50;28.50;;;;;;5008179;28;20032;-83
2021/07/30 08:52:06;;;;;;;4.60;2.83;;;40.30;28.20;;;;;;5008278;28;20037;-81
2021/07/30 08:54:32;;;;;;;6.13;3.30;;;39.90;28.60;;;;;;5008429;28;20117;-82
2021/07/30 08:56:57;;;;;;;8.80;3.20;;;39.90;29.20;;;;;;5008009;28;20124;-81
2021/07/30 08:59:23;;;;;;;5.35;3.20;;;39.60;29.30;;;;;;5007870;28;20256;-82
2021/07/30 09:01:53;;;;;;;11.45;2.65;;;40.20;29.30;;;;;;5007654;28;20076;-83
2021/07/30 09:04:29;;;;;;;12.50;2.55;;;40.40;29.20;;;;;;5029722;28;20060;-83
2021/07/30 09:06:56;;;;;;;7.43;2.47;;;40.40;29.50;;;;;;5011637;28;20026;-83
2021/07/30 09:09:22;;;;;;;6.60;2.88;;;40.50;29.60;;;;;;5012234;28;20036;-82
2021/07/30 09:11:56;;;;;;;10.32;2.63;;;40.80;29.00;;;;;;5012105;28;20132;-83
2021/07/30 09:14:37;;;;;;;8.07;2.83;;;41.10;29.00;;;;;;5011309;28;20025;-84
2021/07/30 09:17:04;;;;;;;4.60;2.80;;;41.10;29.00;;;;;;5011147;28;20045;-83
2021/07/30 09:19:30;;;;;;;3.45;2.50;;;41.10;28.50;;;;;;5011822;28;20517;-82
2021/07/30 09:22:03;;;;;;;11.40;3.05;;;40.90;27.80;;;;;;5029614;28;20025;-83
2021/07/30 09:24:43;;;;;;;8.65;2.60;;;40.60;28.40;;;;;;5012062;28;20045;-82
2021/07/30 09:27:10;;;;;;;5.45;2.83;;;40.50;28.40;;;;;;5029383;28;20029;-81
2021/07/30 09:29:37;;;;;;;10.70;2.90;;;40.50;28.70;;;;;;5029200;28;20854;-81
2021/07/30 09:32:10;;;;;;;4.35;2.72;;;40.60;28.60;;;;;;5029283;28;20060;-83
2021/07/30 09:34:41;;;;;;;2.85;2.50;;;40.90;28.60;;;;;;5029535;28;20025;-82
2021/07/30 09:37:08;;;;;;;5.35;2.40;;;41.00;28.40;;;;;;5007557;28;20137;-83
2021/07/30 09:39:34;;;;;;;5.20;3.13;;;41.20;28.20;;;;;;5008466;28;20030;-83
2021/07/30 09:42:08;;;;;;;3.00;2.60;;;41.30;28.00;;;;;;5008542;28;20092;-83
2021/07/30 09:44:58;;;;;;;5.60;2.80;;;41.30;28.50;;;;;;5007940;28;20152;-83
2021/07/30 09:47:34;;;;;;;4.68;3.05;;;41.60;28.10;;;;;;5007834;28;20030;-82
2021/07/30 09:49:59;;;;;;;4.60;2.55;;;41.20;28.00;;;;;;5009010;28;20515;-82
2021/07/30 09:52:27;;;;;;;6.40;2.72;;;41.30;27.90;;;;;;5007852;28;20046;-82
2021/07/30 09:55:11;;;;;;;3.50;2.83;;;41.40;28.00;;;;;;5009209;28;20026;-82
2021/07/30 09:57:39;;;;;;;9.52;3.08;;;41.40;28.10;;;;;;5007815;28;20029;-82
2021/07/30 10:00:15;;;;;;;7.25;2.80;;;41.60;28.20;;;;;;5009041;28;20670;-82
2021/07/30 10:02:45;;;;;;;4.10;2.90;;;41.40;28.10;;;;;;5007715;28;20108;-82
2021/07/30 10:05:14;;;;;;;4.43;3.17;;;41.60;27.60;;;;;;5007569;28;20037;-82
2021/07/30 10:07:43;;;;;;;7.55;2.72;;;41.10;27.80;;;;;;5009161;28;20030;-81
2021/07/30 10:12:42;;;;;;;4.07;2.55;;;40.40;29.20;;;;;;5008419;28;20573;-82
2021/07/30 10:15:09;;;;;;;3.47;2.25;;;40.10;28.80;;;;;;5007522;28;20062;-82
2021/07/30 10:17:37;;;;;;;9.48;2.83;;;39.90;29.20;;;;;;5008683;28;20026;-82
2021/07/30 10:20:05;;;;;;;4.38;2.90;;;39.50;29.10;;;;;;5007205;28;20037;-81
2021/07/30 10:22:45;;;;;;;7.15;3.15;;;39.20;29.00;;;;;;5008876;28;20128;-82
2021/07/30 10:25:23;;;;;;;4.15;2.47;;;38.40;29.50;;;;;;5007224;28;20026;-82
2021/07/30 10:27:51;;;;;;;4.13;2.80;;;37.80;30.80;;;;;;5006731;28;20061;-82
2021/07/30 10:30:17;;;;;;;3.80;2.00;;;37.60;30.40;;;;;;5007082;28;20145;-83
2021/07/30 10:32:45;;;;;;;7.43;2.60;;;37.50;31.00;;;;;;5007436;28;20502;-82
2021/07/30 10:35:38;;;;;;;8.52;3.00;;;37.40;31.80;;;;;;5006773;28;20037;-81
2021/07/30 10:38:12;;;;;;;6.28;2.70;;;37.10;31.00;;;;;;5006541;28;20521;-82
2021/07/30 10:40:38;;;;;;;9.23;2.90;;;36.80;31.70;;;;;;5007336;28;20435;-82
2021/07/30 10:43:12;;;;;;;7.00;2.47;;;36.60;32.00;;;;;;5006401;28;20479;-82
2021/07/30 10:45:42;;;;;;;5.05;2.95;;;36.20;32.20;;;;;;5007149;28;20026;-82
2021/07/30 10:48:14;;;;;;;9.07;3.03;;;36.00;33.10;;;;;;5006337;28;20053;-83
2021/07/30 10:50:47;;;;;;;4.45;3.00;;;35.90;33.40;;;;;;5007027;28;20120;-81
2021/07/30 10:53:37;;;;;;;6.70;2.70;;;35.80;33.10;;;;;;5006839;28;20034;-81
2021/07/30 10:56:04;;;;;;;8.82;2.53;;;35.50;32.40;;;;;;5008256;28;20044;-82
2021/07/30 10:58:53;;;;;;;5.57;2.20;;;35.60;32.70;;;;;;5007763;28;20022;-82
2021/07/30 11:01:21;;;;;;;5.38;2.53;;;35.70;32.10;;;;;;4996569;28;20042;-83
2021/07/30 11:03:50;;;;;;;8.98;2.22;;;35.70;31.80;;;;;;5007637;28;20034;-83
2021/07/30 11:06:21;;;;;;;4.38;2.08;;;35.70;31.60;;;;;;5006731;28;20037;-81
2021/07/30 11:08:59;;;;;;;6.57;2.00;;;35.50;31.60;;;;;;5006133;28;20153;-82
2021/07/30 11:11:57;;;;;;;5.18;3.03;;;35.60;31.80;;;;;;5006619;28;20557;-82
2021/07/30 11:14:45;;;;;;;3.17;2.30;;;35.50;32.10;;;;;;5006639;28;20080;-81
2021/07/30 11:17:12;;;;;;;6.70;2.55;;;35.30;32.10;;;;;;5007781;28;20022;-82
2021/07/30 11:19:49;;;;;;;2.90;1.88;;;35.10;32.70;;;;;;5006468;28;20141;-81
2021/07/30 11:22:19;;;;;;;5.03;2.85;;;34.90;33.00;;;;;;5006281;28;20038;-82
2021/07/30 11:24:50;;;;;;;3.85;2.30;;;34.70;33.60;;;;;;5005962;28;20037;-80
2021/07/30 11:27:18;;;;;;;5.18;2.20;;;34.70;34.30;;;;;;5005966;28;20041;-81
2021/07/30 11:29:46;;;;;;;5.93;2.85;;;34.80;34.90;;;;;;5005980;28;20028;-81
2021/07/30 11:32:15;;;;;;;4.82;2.05;;;34.90;34.50;;;;;;5006234;28;20096;-83
2021/07/30 11:34:42;;;;;;;3.40;2.67;;;35.00;34.20;;;;;;5006066;28;20022;-81
2021/07/30 11:37:10;;;;;;;6.60;2.38;;;35.10;33.70;;;;;;5015535;28;20057;-82
2021/07/30 11:39:45;;;;;;;5.97;2.20;;;35.10;33.30;;;;;;5009349;28;20497;-82
2021/07/30 11:42:13;;;;;;;5.03;2.10;;;35.00;33.30;;;;;;5008997;28;20029;-82
2021/07/30 11:44:46;;;;;;;5.75;2.78;;;35.00;33.40;;;;;;5009293;28;20172;-81
2021/07/30 11:47:12;;;;;;;3.72;2.20;;;35.10;33.50;;;;;;5026522;28;20736;-82
2021/07/30 11:49:41;;;;;;;5.85;2.03;;;35.20;33.30;;;;;;5026961;28;20029;-82
2021/07/30 11:52:11;;;;;;;8.52;2.55;;;35.30;32.80;;;;;;5009201;28;20034;-82
2021/07/30 11:54:36;;;;;;;6.00;2.60;;;35.40;32.70;;;;;;5008902;28;20025;-83
2021/07/30 11:57:02;;;;;;;4.32;2.63;;;35.40;32.50;;;;;;5026496;28;20040;-82
2021/07/30 11:59:46;;;;;;;5.45;2.50;;;35.40;32.50;;;;;;5008979;28;20029;-82
2021/07/30 12:02:12;;;;;;;11.57;2.50;;;35.40;32.90;;;;;;5008946;28;20041;-81
2021/07/30 12:04:52;;;;;;;4.55;2.50;;;35.40;32.50;;;;;;5009102;28;20047;-82
2021/07/30 12:07:25;;;;;;;7.68;2.05;;;35.40;32.90;;;;;;5026448;28;20112;-81
2021/07/30 12:09:54;;;;;;;4.72;2.28;;;35.40;32.80;;;;;;5008944;28;20124;-82
2021/07/30 12:12:23;;;;;;;5.22;2.45;;;35.40;32.90;;;;;;5008294;28;20036;-82
2021/07/30 12:14:50;;;;;;;6.38;2.30;;;35.50;32.80;;;;;;5026438;28;20029;-82
2021/07/30 12:17:17;;;;;;;10.10;2.08;;;35.50;33.60;;;;;;5008392;28;20033;-82
2021/07/30 12:19:43;;;;;;;4.13;2.08;;;35.50;32.80;;;;;;5026488;28;20075;-82
2021/07/30 12:22:09;;;;;;;4.32;2.03;;;35.40;32.50;;;;;;5026219;28;20462;-82
2021/07/30 12:24:48;;;;;;;14.45;2.22;;;35.00;32.90;;;;;;5006300;28;20486;-83
2021/07/30 12:27:21;;;;;;;9.13;2.40;;;34.80;33.20;;;;;;5023963;28;20104;-82
2021/07/30 12:29:48;;;;;;;4.55;2.50;;;34.70;33.20;;;;;;5007301;28;20747;-82
2021/07/30 12:32:22;;;;;;;6.03;2.90;;;34.60;33.40;;;;;;5025903;28;20536;-82
2021/07/30 12:34:57;;;;;;;4.97;2.88;;;34.60;33.80;;;;;;5008376;28;20395;-81
2021/07/30 12:37:23;;;;;;;4.80;1.83;;;34.80;34.30;;;;;;5025580;28;20065;-82
2021/07/30 12:39:51;;;;;;;12.50;2.40;;;34.90;31.70;;;;;;5025436;28;20037;-82
2021/07/30 12:42:37;;;;;;;2.83;1.90;;;35.00;31.60;;;;;;5008670;28;20116;-81
2021/07/30 12:45:13;;;;;;;;;;;35.10;32.00;;;;;;5006736;28;20045;-82
2021/07/30 12:47:48;;;;;;;2.97;2.28;;;35.10;32.40;;;;;;5024831;28;19909;-82
2021/07/30 12:50:28;;;;;;;8.00;2.08;;;35.00;32.90;;;;;;5023780;28;20036;-82
2021/07/30 12:53:09;;;;;;;3.85;2.20;;;35.00;32.50;;;;;;5005632;28;20040;-82